Time;durP1;ratioP1;P1;durP2;ratioP2;P2;SDS_P1;SDS_P2;PMS_P1;PMS_P2;Temp;Humidity;BMP_temperature;BMP_pressure;BME280_temperature;BME280_humidity;BME280_pressure;Samples;Min_cycle;Max_cycle;Signal;HPM_P1;HPM_P2
2022/06/21 00:00:36;;;;;;;1.37;0.80;;;;;;;;;;4991154;28;20205;-84
2022/06/21 00:03:42;;;;;;;1.40;0.83;;;;;;;;;;4991130;28;20221;-84
2022/06/21 00:06:46;;;;;;;1.87;0.60;;;;;;;;;;4991687;28;20177;-84
2022/06/21 00:09:51;;;;;;;2.40;0.70;;;;;;;;;;5002573;28;20182;-84
2022/06/21 00:12:55;;;;;;;1.47;1.07;;;;;;;;;;5014174;28;20213;-84
2022/06/21 00:16:06;;;;;;;2.60;0.70;;;;;;;;;;5002619;28;20197;-84
2022/06/21 00:19:18;;;;;;;1.57;0.70;;;;;;;;;;5002244;28;20182;-84
2022/06/21 00:22:22;;;;;;;1.57;0.93;;;;;;;;;;4991242;28;20174;-84
2022/06/21 00:25:27;;;;;;;1.60;0.77;;;;;;;;;;4991850;28;20177;-84
2022/06/21 00:28:31;;;;;;;2.70;0.93;;;;;;;;;;5003040;28;20178;-84
2022/06/21 00:31:37;;;;;;;3.30;0.97;;;;;;;;;;4991828;28;20182;-84
2022/06/21 00:34:42;;;;;;;2.77;0.83;;;;;;;;;;5002508;28;20205;-84
2022/06/21 00:37:48;;;;;;;1.97;0.90;;;;;;;;;;4991733;28;20178;-84
2022/06/21 00:40:55;;;;;;;2.83;0.70;;;;;;;;;;5002402;28;20221;-84
2022/06/21 00:44:02;;;;;;;1.10;0.87;;;;;;;;;;5002623;28;20711;-84
2022/06/21 00:47:16;;;;;;;2.20;1.07;;;;;;;;;;5006075;28;20182;-84
2022/06/21 00:50:44;;;;;;;2.10;0.90;;;;;;;;;;5005888;28;20170;-84
2022/06/21 00:53:56;;;;;;;1.00;0.60;;;;;;;;;;5006517;28;20222;-84
2022/06/21 00:57:06;;;;;;;1.17;0.80;;;;;;;;;;4994639;28;20181;-84
2022/06/21 01:00:35;;;;;;;3.37;1.00;;;;;;;;;;5005830;28;20186;-84
2022/06/21 01:03:46;;;;;;;4.17;1.00;;;;;;;;;;5005976;28;20225;-84
2022/06/21 01:06:53;;;;;;;1.10;0.80;;;;;;;;;;4994557;28;20181;-84
2022/06/21 01:10:07;;;;;;;1.00;0.90;;;;;;;;;;4994134;28;20182;-84
2022/06/21 01:13:17;;;;;;;0.93;0.87;;;;;;;;;;5016243;28;20217;-84
2022/06/21 01:16:25;;;;;;;2.93;0.70;;;;;;;;;;5016371;28;20178;-84
2022/06/21 01:19:46;;;;;;;1.63;0.80;;;;;;;;;;5027868;28;20190;-84
2022/06/21 01:23:04;;;;;;;3.50;0.90;;;;;;;;;;5004769;28;20225;-84
2022/06/21 01:26:20;;;;;;;3.27;1.10;;;;;;;;;;4994079;28;20546;-84
2022/06/21 01:29:27;;;;;;;3.13;1.00;;;;;;;;;;5005414;28;20182;-84
2022/06/21 01:32:32;;;;;;;1.73;0.80;;;;;;;;;;5004447;28;20178;-84
2022/06/21 01:35:42;;;;;;;3.40;0.93;;;;;;;;;;4993669;28;20181;-84
2022/06/21 01:38:55;;;;;;;2.60;0.80;;;;;;;;;;4993903;28;20190;-84
2022/06/21 01:42:13;;;;;;;2.30;0.70;;;;;;;;;;5004704;28;20209;-84
2022/06/21 01:45:34;;;;;;;2.57;0.70;;;;;;;;;;5004559;28;20182;-84
2022/06/21 01:48:48;;;;;;;2.20;1.03;;;;;;;;;;5016297;28;20186;-84
2022/06/21 01:51:58;;;;;;;5.73;1.30;;;;;;;;;;5005210;28;20174;-84
2022/06/21 01:55:11;;;;;;;2.30;1.20;;;;;;;;;;5004585;28;20181;-84
2022/06/21 01:58:19;;;;;;;2.20;1.10;;;;;;;;;;5004110;28;20181;-85
2022/06/21 02:01:36;;;;;;;2.50;1.00;;;;;;;;;;5027132;28;20209;-84
2022/06/21 02:05:01;;;;;;;1.63;0.97;;;;;;;;;;4993566;28;20277;-84
2022/06/21 02:08:10;;;;;;;1.23;1.00;;;;;;;;;;5004547;28;20178;-84
2022/06/21 02:11:33;;;;;;;2.83;0.93;;;;;;;;;;4994076;28;20193;-84
2022/06/21 02:14:45;;;;;;;1.03;0.90;;;;;;;;;;4992821;28;20572;-84
2022/06/21 02:17:51;;;;;;;3.33;0.93;;;;;;;;;;5004642;28;20628;-84
2022/06/21 02:21:05;;;;;;;1.37;0.87;;;;;;;;;;5027225;28;20209;-83
2022/06/21 02:24:14;;;;;;;2.73;0.90;;;;;;;;;;5015470;28;20695;-84
2022/06/21 02:27:21;;;;;;;1.00;0.90;;;;;;;;;;5015483;28;20194;-84
2022/06/21 02:30:26;;;;;;;1.20;0.80;;;;;;;;;;5015918;28;20197;-84
2022/06/21 02:33:32;;;;;;;2.23;0.80;;;;;;;;;;5015893;28;20560;-84
2022/06/21 02:36:45;;;;;;;3.40;0.90;;;;;;;;;;5004610;28;20173;-84
2022/06/21 02:39:50;;;;;;;0.97;0.83;;;;;;;;;;5004254;28;20211;-84
2022/06/21 02:42:59;;;;;;;2.63;1.00;;;;;;;;;;4992552;28;20228;-84
2022/06/21 02:46:08;;;;;;;1.67;0.87;;;;;;;;;;4993659;28;20186;-84
2022/06/21 02:49:16;;;;;;;1.37;0.87;;;;;;;;;;5003775;28;20182;-84
2022/06/21 02:52:29;;;;;;;2.70;1.00;;;;;;;;;;5004625;28;20177;-84
2022/06/21 02:55:48;;;;;;;1.77;0.77;;;;;;;;;;4992962;28;20186;-84
2022/06/21 02:58:57;;;;;;;1.47;1.10;;;;;;;;;;4992486;28;20177;-84
2022/06/21 03:02:07;;;;;;;2.13;1.20;;;;;;;;;;5003716;28;20210;-84
2022/06/21 03:05:15;;;;;;;1.93;0.97;;;;;;;;;;5014885;28;20248;-84
2022/06/21 03:08:20;;;;;;;7.17;1.07;;;;;;;;;;5003652;28;20664;-84
2022/06/21 03:11:28;;;;;;;1.80;0.90;;;;;;;;;;4992783;28;20169;-84
2022/06/21 03:14:34;;;;;;;1.00;0.80;;;;;;;;;;4992503;28;20213;-84
2022/06/21 03:17:54;;;;;;;1.67;1.00;;;;;;;;;;5003846;28;20632;-84
2022/06/21 03:21:03;;;;;;;3.93;0.73;;;;;;;;;;5015208;28;20182;-84
2022/06/21 03:24:14;;;;;;;4.30;0.93;;;;;;;;;;5014660;28;20229;-84
2022/06/21 03:27:24;;;;;;;1.60;1.20;;;;;;;;;;5002791;28;20193;-81
2022/06/21 03:30:35;;;;;;;2.67;1.00;;;;;;;;;;4993028;28;20197;-84
2022/06/21 03:33:46;;;;;;;5.70;1.13;;;;;;;;;;5003970;28;20221;-81
2022/06/21 03:36:50;;;;;;;2.63;1.03;;;;;;;;;;5003693;28;20197;-80
2022/06/21 03:43:30;;;;;;;2.20;0.80;;;;;;;;;;4987391;28;20222;-81
2022/06/21 03:47:00;;;;;;;3.70;1.07;;;;;;;;;;4995829;28;20187;-84
2022/06/21 03:50:18;;;;;;;1.53;0.90;;;;;;;;;;5004862;28;20189;-84
2022/06/21 03:53:25;;;;;;;2.53;1.07;;;;;;;;;;5003310;28;20221;-84
2022/06/21 03:56:35;;;;;;;2.93;0.90;;;;;;;;;;5000785;28;20185;-84
2022/06/21 03:59:48;;;;;;;1.00;0.90;;;;;;;;;;4984174;28;20198;-84
2022/06/21 04:02:52;;;;;;;1.67;1.00;;;;;;;;;;4983002;28;20573;-84
2022/06/21 04:06:06;;;;;;;1.83;0.90;;;;;;;;;;4973386;28;20178;-82
2022/06/21 04:09:30;;;;;;;2.60;1.13;;;;;;;;;;5007846;28;20201;-84
2022/06/21 04:12:38;;;;;;;3.67;1.13;;;;;;;;;;4983445;28;20618;-83
2022/06/21 04:15:54;;;;;;;4.10;1.27;;;;;;;;;;4983677;28;20195;-82
2022/06/21 04:19:24;;;;;;;2.97;1.20;;;;;;;;;;4973127;28;20523;-82
2022/06/21 04:22:34;;;;;;;1.30;0.90;;;;;;;;;;4987272;28;20230;-83
2022/06/21 04:25:50;;;;;;;1.77;0.90;;;;;;;;;;5038511;23;20240;-85
2022/06/21 04:29:03;;;;;;;3.80;0.97;;;;;;;;;;5007287;28;20194;-85
2022/06/21 04:32:28;;;;;;;1.73;0.83;;;;;;;;;;5016905;28;20197;-85
2022/06/21 04:35:38;;;;;;;2.63;1.20;;;;;;;;;;4995584;28;20222;-84
2022/06/21 04:38:52;;;;;;;0.80;0.80;;;;;;;;;;4989657;28;21192;-85
2022/06/21 04:42:03;;;;;;;2.93;1.10;;;;;;;;;;4993264;28;20205;-85
2022/06/21 04:45:38;;;;;;;2.43;1.03;;;;;;;;;;4997163;28;20218;-85
2022/06/21 04:48:54;;;;;;;2.30;1.20;;;;;;;;;;4996252;28;20542;-85
2022/06/21 04:52:10;;;;;;;4.83;1.70;;;;;;;;;;4984025;28;20186;-85
2022/06/21 04:55:16;;;;;;;1.60;1.20;;;;;;;;;;4994053;28;20226;-84
2022/06/21 04:58:21;;;;;;;1.93;1.40;;;;;;;;;;4985137;28;20542;-85
2022/06/21 05:01:35;;;;;;;3.73;1.40;;;;;;;;;;4995046;28;20181;-87
2022/06/21 05:04:41;;;;;;;2.57;1.60;;;;;;;;;;5017235;28;20217;-87
2022/06/21 05:07:50;;;;;;;2.40;1.40;;;;;;;;;;4995210;28;20177;-84
2022/06/21 05:10:58;;;;;;;3.67;1.30;;;;;;;;;;4995222;28;20181;-85
2022/06/21 05:14:02;;;;;;;1.20;1.10;;;;;;;;;;5006305;28;20684;-86
2022/06/21 05:17:11;;;;;;;1.97;1.27;;;;;;;;;;4995179;28;20181;-87
2022/06/21 05:20:21;;;;;;;2.20;1.30;;;;;;;;;;4994301;28;20178;-86
2022/06/21 05:23:26;;;;;;;1.50;1.13;;;;;;;;;;4994180;28;20213;-86
2022/06/21 05:26:36;;;;;;;4.17;1.33;;;;;;;;;;4994292;28;20185;-87
2022/06/21 05:29:50;;;;;;;3.93;1.10;;;;;;;;;;4994419;28;20178;-86
2022/06/21 05:32:58;;;;;;;2.53;1.10;;;;;;;;;;5005118;28;20521;-86
2022/06/21 05:36:06;;;;;;;1.83;1.10;;;;;;;;;;5005819;28;20522;-86
2022/06/21 05:39:20;;;;;;;2.83;1.10;;;;;;;;;;4994362;28;20297;-86
2022/06/21 05:42:27;;;;;;;3.73;1.30;;;;;;;;;;4993908;28;20206;-86
2022/06/21 05:45:34;;;;;;;3.80;1.20;;;;;;;;;;4996101;28;20213;-85
2022/06/21 05:48:40;;;;;;;8.93;1.40;;;;;;;;;;5007467;28;20513;-84
2022/06/21 05:51:44;;;;;;;2.40;1.23;;;;;;;;;;5019143;28;20513;-83
2022/06/21 05:55:13;;;;;;;3.13;1.20;;;;;;;;;;5007364;28;20213;-84
2022/06/21 05:58:23;;;;;;;4.73;1.10;;;;;;;;;;4995985;28;20182;-85
2022/06/21 06:01:47;;;;;;;4.30;1.20;;;;;;;;;;4996368;28;20538;-84
2022/06/21 06:05:01;;;;;;;2.70;1.27;;;;;;;;;;5017252;28;20221;-84
2022/06/21 06:08:17;;;;;;;3.23;1.20;;;;;;;;;;5007479;28;20198;-85
2022/06/21 06:11:57;;;;;;;5.70;1.20;;;;;;;;;;4996016;28;20193;-85
2022/06/21 06:14:58;;;;;;;4.30;1.47;;;;;;;;;;5006036;28;20221;-85
2022/06/21 06:18:22;;;;;;;3.80;1.40;;;;;;;;;;4994642;28;20185;-85
2022/06/21 06:21:34;;;;;;;3.57;1.47;;;;;;;;;;5005856;28;20521;-84
2022/06/21 06:25:01;;;;;;;4.63;1.63;;;;;;;;;;4995361;28;20225;-84
2022/06/21 06:28:15;;;;;;;2.37;1.30;;;;;;;;;;4995206;28;20181;-84
2022/06/21 06:31:37;;;;;;;2.47;1.40;;;;;;;;;;5004968;28;20182;-84
2022/06/21 06:34:46;;;;;;;6.07;1.50;;;;;;;;;;4994529;28;20557;-84
2022/06/21 06:37:50;;;;;;;2.43;1.30;;;;;;;;;;5005809;28;20182;-85
2022/06/21 06:41:08;;;;;;;3.13;1.33;;;;;;;;;;5006247;28;20185;-84
2022/06/21 06:44:12;;;;;;;5.10;1.50;;;;;;;;;;5005034;28;20699;-84
2022/06/21 06:47:25;;;;;;;4.80;1.50;;;;;;;;;;4993991;28;20181;-84
2022/06/21 06:51:14;;;;;;;6.07;1.70;;;;;;;;;;4994030;28;20181;-84
2022/06/21 06:54:59;;;;;;;3.70;1.60;;;;;;;;;;4994847;28;20217;-83
2022/06/21 06:58:24;;;;;;;5.73;1.67;;;;;;;;;;5006904;28;20177;-84
2022/06/21 07:01:57;;;;;;;5.67;1.80;;;;;;;;;;5006739;28;20190;-84
2022/06/21 07:05:21;;;;;;;3.50;1.40;;;;;;;;;;4993374;28;20233;-84
2022/06/21 07:08:34;;;;;;;2.40;1.30;;;;;;;;;;5004874;28;20185;-84
2022/06/21 07:11:39;;;;;;;4.10;1.33;;;;;;;;;;5005479;28;20197;-84
2022/06/21 07:14:44;;;;;;;3.13;1.60;;;;;;;;;;4994334;28;20213;-84
2022/06/21 07:17:52;;;;;;;4.00;1.13;;;;;;;;;;4993916;28;20201;-84
2022/06/21 07:20:56;;;;;;;5.77;1.50;;;;;;;;;;5005636;28;20185;-85
2022/06/21 07:24:01;;;;;;;3.93;1.50;;;;;;;;;;4993707;28;20233;-84
2022/06/21 07:27:10;;;;;;;2.40;1.60;;;;;;;;;;4994471;28;20178;-85
2022/06/21 07:30:21;;;;;;;2.57;1.43;;;;;;;;;;5004564;28;20185;-84
2022/06/21 07:33:31;;;;;;;5.20;1.10;;;;;;;;;;4993893;28;20189;-85
2022/06/21 07:36:38;;;;;;;3.83;1.30;;;;;;;;;;5016759;28;20182;-84
2022/06/21 07:39:52;;;;;;;2.07;1.30;;;;;;;;;;5005231;28;20178;-84
2022/06/21 07:43:11;;;;;;;4.00;1.20;;;;;;;;;;5004946;28;20205;-84
2022/06/21 07:46:21;;;;;;;4.30;1.53;;;;;;;;;;5003689;28;20675;-84
2022/06/21 07:49:50;;;;;;;3.60;1.80;;;;;;;;;;5003803;28;20177;-84
2022/06/21 07:53:02;;;;;;;2.77;1.70;;;;;;;;;;5003562;28;20177;-84
2022/06/21 07:56:22;;;;;;;4.90;1.33;;;;;;;;;;5019818;28;20178;-84
2022/06/21 07:59:43;;;;;;;3.87;1.30;;;;;;;;;;5009975;28;20182;-84
2022/06/21 08:06:43;;;;;;;2.90;1.40;;;;;;;;;;5009796;28;20187;-85
2022/06/21 08:09:59;;;;;;;3.23;1.13;;;;;;;;;;5021376;28;20523;-84
2022/06/21 08:13:04;;;;;;;2.63;1.17;;;;;;;;;;4997907;28;20626;-84
2022/06/21 08:16:16;;;;;;;2.47;1.27;;;;;;;;;;5020155;28;20178;-85
2022/06/21 08:19:28;;;;;;;3.63;1.37;;;;;;;;;;5008584;28;20194;-84
2022/06/21 08:23:03;;;;;;;2.43;1.20;;;;;;;;;;4994533;28;20219;-84
2022/06/21 08:26:24;;;;;;;3.55;1.27;;;;;;;;;;5016861;28;20184;-84
2022/06/21 08:29:47;;;;;;;1.73;1.10;;;;;;;;;;5017549;28;20188;-87
2022/06/21 08:32:57;;;;;;;3.45;1.08;;;;;;;;;;5005175;28;20181;-87
2022/06/21 08:36:10;;;;;;;2.80;1.25;;;;;;;;;;5005545;28;20197;-86
2022/06/21 08:39:22;;;;;;;4.10;1.83;;;;;;;;;;4995406;28;20185;-87
2022/06/21 08:43:04;;;;;;;3.08;1.30;;;;;;;;;;4993473;28;20174;-86
2022/06/21 08:46:33;;;;;;;2.42;1.20;;;;;;;;;;5029130;28;20178;-86
2022/06/21 08:49:49;;;;;;;3.58;1.15;;;;;;;;;;5007143;28;20187;-86
2022/06/21 08:53:17;;;;;;;2.22;1.08;;;;;;;;;;5005093;28;20193;-86
2022/06/21 08:56:21;;;;;;;4.68;1.30;;;;;;;;;;5006937;28;20184;-87
2022/06/21 08:59:41;;;;;;;3.58;1.20;;;;;;;;;;4995462;28;20548;-86
2022/06/21 09:03:23;;;;;;;2.67;1.10;;;;;;;;;;5006795;28;20213;-86
2022/06/21 09:06:54;;;;;;;3.17;1.40;;;;;;;;;;5005878;28;20181;-86
2022/06/21 09:10:25;;;;;;;4.82;1.58;;;;;;;;;;4997151;28;20187;-86
2022/06/21 09:13:58;;;;;;;3.10;1.38;;;;;;;;;;4993365;28;20188;-86
2022/06/21 09:17:18;;;;;;;3.50;1.48;;;;;;;;;;4999319;28;20204;-86
2022/06/21 09:20:43;;;;;;;5.68;1.20;;;;;;;;;;4994993;28;20185;-86
2022/06/21 09:23:59;;;;;;;1.92;1.00;;;;;;;;;;4968681;28;1074863;-86
2022/06/21 09:27:09;;;;;;;2.50;1.20;;;;;;;;;;5005503;28;20193;-86
2022/06/21 09:30:20;;;;;;;1.95;1.30;;;;;;;;;;5008196;28;20180;-86
2022/06/21 09:33:41;;;;;;;3.60;0.88;;;;;;;;;;5015791;28;20176;-87
2022/06/21 09:37:11;;;;;;;2.42;1.00;;;;;;;;;;5025146;28;20185;-86
2022/06/21 09:40:25;;;;;;;4.75;1.02;;;;;;;;;;5009962;28;20173;-86
2022/06/21 09:43:57;;;;;;;2.63;1.13;;;;;;;;;;4998685;28;20215;-86
2022/06/21 09:47:22;;;;;;;1.85;1.00;;;;;;;;;;5020775;28;20621;-86
2022/06/21 09:50:43;;;;;;;2.47;1.10;;;;;;;;;;5022717;28;20180;-87
2022/06/21 09:54:07;;;;;;;2.50;1.08;;;;;;;;;;5000138;28;20682;-86
2022/06/21 09:57:35;;;;;;;3.15;1.08;;;;;;;;;;5021542;28;20181;-86
2022/06/21 10:00:48;;;;;;;2.45;1.10;;;;;;;;;;4999180;28;20186;-87
2022/06/21 10:04:02;;;;;;;3.88;1.10;;;;;;;;;;5006646;28;20580;-86
2022/06/21 10:07:32;;;;;;;1.70;1.10;;;;;;;;;;4995824;28;20180;-86
2022/06/21 10:10:45;;;;;;;3.97;1.23;;;;;;;;;;5007547;28;20184;-87
2022/06/21 10:14:15;;;;;;;1.17;1.00;;;;;;;;;;5010393;28;20213;-86
2022/06/21 10:17:50;;;;;;;3.97;1.20;;;;;;;;;;4998142;28;20518;-86
2022/06/21 10:21:00;;;;;;;1.33;0.80;;;;;;;;;;4995683;28;20175;-86
2022/06/21 10:24:34;;;;;;;2.60;1.10;;;;;;;;;;4995806;28;20236;-87
2022/06/21 10:27:49;;;;;;;2.40;1.00;;;;;;;;;;5010848;23;20244;-89
2022/06/21 10:31:11;;;;;;;2.55;0.90;;;;;;;;;;4964110;28;20182;-89
2022/06/21 10:34:40;;;;;;;1.33;0.90;;;;;;;;;;4964248;28;20183;-89
2022/06/21 10:38:16;;;;;;;1.98;1.00;;;;;;;;;;4952633;28;20696;-89
2022/06/21 10:41:41;;;;;;;2.97;1.10;;;;;;;;;;4964027;28;20177;-88
2022/06/21 10:44:57;;;;;;;3.58;0.98;;;;;;;;;;4975098;28;20660;-88
2022/06/21 10:48:40;;;;;;;3.50;1.27;;;;;;;;;;4963640;28;20224;-89
2022/06/21 10:51:53;;;;;;;2.92;1.50;;;;;;;;;;4952658;28;20201;-89
2022/06/21 10:55:22;;;;;;;2.00;1.33;;;;;;;;;;4963996;28;20188;-89
2022/06/21 10:58:46;;;;;;;2.55;1.33;;;;;;;;;;4963456;28;20185;-89
2022/06/21 11:01:56;;;;;;;2.63;1.20;;;;;;;;;;4960551;28;20193;-90
2022/06/21 11:05:19;;;;;;;3.28;1.10;;;;;;;;;;4951933;28;20221;-89
2022/06/21 11:08:45;;;;;;;2.08;1.02;;;;;;;;;;4950263;28;20194;-88
2022/06/21 11:16:06;;;;;;;2.70;1.05;;;;;;;;;;4973897;28;20194;-88
2022/06/21 11:19:21;;;;;;;2.03;0.90;;;;;;;;;;4963307;28;20195;-88
2022/06/21 11:22:50;;;;;;;3.90;1.25;;;;;;;;;;4967475;28;20196;-88
2022/06/21 11:26:18;;;;;;;6.72;0.90;;;;;;;;;;4949219;28;20190;-88
2022/06/21 11:29:40;;;;;;;1.92;0.90;;;;;;;;;;4961155;28;20189;-88
2022/06/21 11:33:09;;;;;;;4.25;1.10;;;;;;;;;;4947652;28;20187;-86
2022/06/21 11:36:22;;;;;;;3.72;1.00;;;;;;;;;;4947041;28;20229;-86
2022/06/21 11:39:36;;;;;;;3.80;1.10;;;;;;;;;;4963069;28;20190;-86
2022/06/21 11:42:52;;;;;;;4.15;1.10;;;;;;;;;;4962628;28;20194;-86
2022/06/21 11:46:29;;;;;;;3.67;1.00;;;;;;;;;;4976802;28;20185;-85
2022/06/21 11:50:01;;;;;;;1.52;0.82;;;;;;;;;;4943709;29;20642;-85
2022/06/21 11:53:21;;;;;;;3.80;0.90;;;;;;;;;;4943820;29;20615;-85
2022/06/21 11:56:47;;;;;;;20.55;3.33;;;;;;;;;;4944747;29;20234;-85
2022/06/21 12:00:05;;;;;;;2.08;0.90;;;;;;;;;;4943610;29;20191;-86
2022/06/21 12:03:19;;;;;;;3.28;1.00;;;;;;;;;;4954642;28;20341;-86
2022/06/21 12:06:48;;;;;;;2.65;0.98;;;;;;;;;;4955622;28;20224;-86
2022/06/21 12:10:09;;;;;;;5.18;1.00;;;;;;;;;;4943765;29;20191;-86
2022/06/21 12:13:27;;;;;;;2.95;1.10;;;;;;;;;;4943554;29;20180;-86
2022/06/21 12:16:38;;;;;;;3.47;1.00;;;;;;;;;;4958868;28;20219;-86
2022/06/21 12:19:46;;;;;;;1.80;0.90;;;;;;;;;;4962605;28;20545;-86
2022/06/21 12:23:04;;;;;;;2.90;1.08;;;;;;;;;;4963054;28;20180;-86
2022/06/21 12:26:15;;;;;;;2.90;0.90;;;;;;;;;;4967860;28;20207;-86
2022/06/21 12:29:20;;;;;;;5.82;1.02;;;;;;;;;;4943585;29;20188;-86
2022/06/21 12:32:25;;;;;;;2.80;0.90;;;;;;;;;;4973101;28;20195;-86
2022/06/21 12:35:40;;;;;;;2.15;0.82;;;;;;;;;;4971570;28;20203;-86
2022/06/21 12:38:51;;;;;;;3.10;0.90;;;;;;;;;;4954323;29;20192;-86
2022/06/21 12:42:08;;;;;;;1.17;0.80;;;;;;;;;;4965607;28;20199;-86
2022/06/21 12:45:34;;;;;;;2.25;0.82;;;;;;;;;;4956971;29;20212;-86
2022/06/21 12:48:46;;;;;;;3.33;1.10;;;;;;;;;;4952063;28;20195;-86
2022/06/21 12:51:58;;;;;;;3.20;1.38;;;;;;;;;;4972878;28;20195;-86
2022/06/21 12:55:28;;;;;;;5.35;0.93;;;;;;;;;;4960891;28;20191;-86
2022/06/21 12:58:35;;;;;;;2.40;0.90;;;;;;;;;;4965854;28;20186;-86
2022/06/21 13:02:00;;;;;;;2.10;1.20;;;;;;;;;;4946316;29;20184;-89
2022/06/21 13:05:21;;;;;;;1.42;0.90;;;;;;;;;;4971262;28;20207;-88
2022/06/21 13:08:34;;;;;;;2.83;1.00;;;;;;;;;;4966027;28;20191;-88
2022/06/21 13:11:57;;;;;;;1.45;0.90;;;;;;;;;;4951025;28;20195;-88
2022/06/21 13:15:20;;;;;;;8.77;1.33;;;;;;;;;;4947088;29;20196;-88
2022/06/21 13:18:36;;;;;;;1.63;0.98;;;;;;;;;;4946243;29;20188;-88
2022/06/21 13:21:57;;;;;;;4.20;1.30;;;;;;;;;;4957495;28;20542;-88
2022/06/21 13:25:31;;;;;;;2.40;1.08;;;;;;;;;;4946354;28;20211;-88
2022/06/21 13:28:51;;;;;;;2.42;1.00;;;;;;;;;;4958690;28;20199;-88
2022/06/21 13:32:04;;;;;;;2.75;1.10;;;;;;;;;;4975979;28;20199;-88
2022/06/21 13:35:45;;;;;;;1.48;0.88;;;;;;;;;;4947799;29;20188;-88
2022/06/21 13:39:20;;;;;;;2.25;1.20;;;;;;;;;;4946476;28;20188;-88
2022/06/21 13:42:38;;;;;;;1.10;0.90;;;;;;;;;;4960818;28;20200;-87
2022/06/21 13:45:51;;;;;;;0.80;0.80;;;;;;;;;;4964780;28;20231;-88
2022/06/21 13:49:11;;;;;;;3.03;1.23;;;;;;;;;;4953162;28;20200;-88
2022/06/21 13:52:18;;;;;;;3.05;0.90;;;;;;;;;;4944528;29;20196;-88
2022/06/21 13:55:28;;;;;;;2.55;0.90;;;;;;;;;;4957596;29;20180;-88
2022/06/21 13:58:42;;;;;;;3.58;1.05;;;;;;;;;;4953503;29;20199;-88
2022/06/21 14:01:56;;;;;;;1.80;0.93;;;;;;;;;;4956402;29;20188;-88
2022/06/21 14:05:31;;;;;;;5.30;1.02;;;;;;;;;;4946314;28;20687;-88
2022/06/21 14:08:42;;;;;;;3.85;1.10;;;;;;;;;;4962219;28;20187;-88
2022/06/21 14:11:52;;;;;;;2.10;0.80;;;;;;;;;;4984826;28;20194;-88
2022/06/21 14:15:05;;;;;;;1.85;0.95;;;;;;;;;;4945777;29;20647;-89
2022/06/21 14:18:19;;;;;;;4.15;0.90;;;;;;;;;;4957206;28;20714;-89
2022/06/21 14:21:33;;;;;;;2.72;0.77;;;;;;;;;;4958184;28;20643;-88
2022/06/21 14:24:55;;;;;;;6.75;1.10;;;;;;;;;;4945861;28;20212;-88
2022/06/21 14:28:32;;;;;;;1.85;0.80;;;;;;;;;;4961779;28;20234;-89
2022/06/21 14:31:58;;;;;;;1.92;0.90;;;;;;;;;;4991157;28;20530;-89
2022/06/21 14:35:12;;;;;;;2.00;0.80;;;;;;;;;;4944625;29;20180;-87
2022/06/21 14:38:42;;;;;;;1.08;0.73;;;;;;;;;;4945708;28;20188;-87
2022/06/21 14:41:58;;;;;;;2.10;0.90;;;;;;;;;;4964690;28;20191;-85
2022/06/21 14:45:31;;;;;;;3.25;0.90;;;;;;;;;;4966628;28;20207;-87
2022/06/21 14:48:54;;;;;;;1.08;0.75;;;;;;;;;;4966652;28;20184;-88
2022/06/21 14:52:35;;;;;;;1.92;1.02;;;;;;;;;;4959497;28;20187;-87
2022/06/21 14:56:34;;;;;;;1.70;0.88;;;;;;;;;;4966818;28;20187;-88
2022/06/21 14:59:57;;;;;;;1.25;0.90;;;;;;;;;;4928519;28;20212;-85
2022/06/21 15:03:08;;;;;;;2.97;1.10;;;;;;;;;;4944456;28;20633;-84
2022/06/21 15:06:34;;;;;;;1.88;1.00;;;;;;;;;;4963854;28;20223;-87
2022/06/21 15:09:47;;;;;;;4.63;0.93;;;;;;;;;;4949550;29;20532;-88
2022/06/21 15:12:58;;;;;;;2.08;0.80;;;;;;;;;;4945052;29;20200;-88
2022/06/21 15:16:16;;;;;;;3.85;1.15;;;;;;;;;;4955732;28;20184;-83
2022/06/21 15:23:22;;;;;;;2.80;1.02;;;;;;;;;;4946491;29;20200;-87
2022/06/21 15:26:39;;;;;;;1.20;0.90;;;;;;;;;;4953390;28;20599;-87
2022/06/21 15:29:51;;;;;;;3.40;0.90;;;;;;;;;;4958236;28;20196;-87
2022/06/21 15:32:58;;;;;;;2.75;0.90;;;;;;;;;;4944198;29;20180;-87
2022/06/21 15:36:42;;;;;;;1.52;0.77;;;;;;;;;;4945643;29;20184;-87
2022/06/21 15:39:51;;;;;;;1.15;0.70;;;;;;;;;;4944620;29;20184;-87
2022/06/21 15:43:08;;;;;;;3.25;1.30;;;;;;;;;;4943962;29;20514;-84
2022/06/21 15:46:19;;;;;;;5.75;0.93;;;;;;;;;;4954341;29;20227;-87
2022/06/21 15:53:05;;;;;;;2.40;1.00;;;;;;;;;;4965633;28;20190;-89
2022/06/21 15:56:50;;;;;;;4.78;1.20;;;;;;;;;;4947981;28;20218;-89
2022/06/21 16:00:21;;;;;;;1.70;1.10;;;;;;;;;;4958658;28;20202;-89
2022/06/21 16:03:31;;;;;;;7.13;1.48;;;;;;;;;;4963119;28;20188;-88
2022/06/21 16:06:50;;;;;;;0.80;0.75;;;;;;;;;;4961791;28;20233;-89
2022/06/21 16:09:56;;;;;;;3.90;1.00;;;;;;;;;;4963202;28;20185;-89
2022/06/21 16:13:05;;;;;;;3.35;1.08;;;;;;;;;;4974027;28;20193;-89
2022/06/21 16:16:10;;;;;;;3.50;1.00;;;;;;;;;;4964341;28;20216;-89
2022/06/21 16:19:17;;;;;;;1.52;1.00;;;;;;;;;;4958396;29;20209;-88
2022/06/21 16:22:37;;;;;;;1.27;0.98;;;;;;;;;;4947911;29;20182;-88
2022/06/21 16:26:09;;;;;;;4.22;1.00;;;;;;;;;;4947692;28;20224;-88
2022/06/21 16:29:27;;;;;;;1.23;0.80;;;;;;;;;;5021207;23;20231;-87
2022/06/21 16:33:12;;;;;;;1.20;0.93;;;;;;;;;;5006037;28;20180;-86
2022/06/21 16:36:39;;;;;;;2.35;1.13;;;;;;;;;;5006610;28;20181;-86
2022/06/21 16:39:50;;;;;;;2.13;1.00;;;;;;;;;;5005915;28;20555;-91
2022/06/21 16:43:00;;;;;;;1.40;0.90;;;;;;;;;;5018893;28;20183;-85
2022/06/21 16:46:18;;;;;;;2.73;1.00;;;;;;;;;;5005147;28;20214;-85
2022/06/21 16:49:33;;;;;;;2.53;1.10;;;;;;;;;;4985788;28;20698;-86
2022/06/21 16:52:39;;;;;;;4.40;1.00;;;;;;;;;;5008696;28;20189;-86
2022/06/21 16:55:52;;;;;;;4.20;1.03;;;;;;;;;;5006661;28;20179;-87
2022/06/21 16:59:15;;;;;;;2.00;1.10;;;;;;;;;;5009703;28;20217;-86
2022/06/21 17:02:22;;;;;;;2.90;1.20;;;;;;;;;;5002259;28;20191;-86
2022/06/21 17:05:37;;;;;;;2.97;1.10;;;;;;;;;;4999022;28;20227;-85
2022/06/21 17:08:41;;;;;;;3.53;1.03;;;;;;;;;;5004685;28;20217;-85
2022/06/21 17:12:04;;;;;;;1.37;0.90;;;;;;;;;;5016322;28;20184;-85
2022/06/21 17:15:11;;;;;;;4.37;1.43;;;;;;;;;;5012945;28;20196;-85
2022/06/21 17:18:22;;;;;;;2.23;1.20;;;;;;;;;;5014850;28;20221;-85
2022/06/21 17:21:47;;;;;;;2.17;1.00;;;;;;;;;;4988715;28;20189;-85
2022/06/21 17:24:55;;;;;;;3.73;0.73;;;;;;;;;;5016314;28;20196;-88
2022/06/21 17:28:10;;;;;;;1.13;0.80;;;;;;;;;;5015541;28;20219;-87
2022/06/21 17:31:24;;;;;;;4.37;2.23;;;;;;;;;;5004176;28;20576;-88
2022/06/21 17:34:54;;;;;;;3.17;1.63;;;;;;;;;;5004312;28;20528;-88
2022/06/21 17:38:06;;;;;;;6.93;1.30;;;;;;;;;;4993048;28;20224;-88
2022/06/21 17:41:32;;;;;;;1.90;1.03;;;;;;;;;;5004360;28;20183;-88
2022/06/21 17:44:41;;;;;;;3.10;1.00;;;;;;;;;;5003853;28;20642;-88
2022/06/21 17:47:59;;;;;;;2.73;0.90;;;;;;;;;;5004283;28;20208;-88
2022/06/21 17:51:10;;;;;;;3.13;1.10;;;;;;;;;;4993500;28;20181;-88
2022/06/21 17:54:38;;;;;;;5.87;1.00;;;;;;;;;;5004623;28;20186;-88
2022/06/21 17:57:51;;;;;;;2.00;0.90;;;;;;;;;;4995279;28;20187;-88
2022/06/21 18:00:59;;;;;;;1.17;0.90;;;;;;;;;;5000648;28;20183;-88
2022/06/21 18:04:24;;;;;;;1.37;0.80;;;;;;;;;;4995362;28;20559;-88
2022/06/21 18:07:31;;;;;;;3.33;0.90;;;;;;;;;;4986286;28;20515;-88
2022/06/21 18:10:44;;;;;;;1.57;0.80;;;;;;;;;;4985577;28;20182;-88
2022/06/21 18:14:12;;;;;;;1.30;1.00;;;;;;;;;;4991921;28;20201;-87
2022/06/21 18:17:39;;;;;;;2.43;0.97;;;;;;;;;;4996946;28;20182;-88
2022/06/21 18:20:50;;;;;;;4.07;1.20;;;;;;;;;;5015699;28;20190;-87
2022/06/21 18:24:04;;;;;;;2.70;0.90;;;;;;;;;;5004763;28;20201;-88
2022/06/21 18:27:27;;;;;;;2.00;1.03;;;;;;;;;;5005766;28;20214;-88
2022/06/21 18:30:50;;;;;;;2.37;1.30;;;;;;;;;;5007178;28;20533;-88
2022/06/21 18:33:55;;;;;;;3.60;1.30;;;;;;;;;;4989189;28;20198;-87
2022/06/21 18:37:22;;;;;;;6.23;1.13;;;;;;;;;;5002383;28;20236;-88
2022/06/21 18:40:54;;;;;;;1.90;1.10;;;;;;;;;;5000925;28;20209;-87
2022/06/21 18:44:18;;;;;;;2.50;0.90;;;;;;;;;;4988858;28;20190;-87
2022/06/21 18:47:43;;;;;;;1.67;1.00;;;;;;;;;;5006897;28;20213;-87
2022/06/21 18:50:57;;;;;;;2.90;1.20;;;;;;;;;;4984836;28;20534;-87
2022/06/21 18:54:27;;;;;;;2.30;1.10;;;;;;;;;;4995852;28;20190;-88
2022/06/21 18:57:47;;;;;;;1.67;1.00;;;;;;;;;;4987780;28;20189;-87
2022/06/21 19:01:15;;;;;;;2.80;1.40;;;;;;;;;;5001591;28;20186;-87
2022/06/21 19:08:54;;;;;;;1.57;1.00;;;;;;;;;;4991216;28;20229;-87
2022/06/21 19:12:21;;;;;;;2.40;1.40;;;;;;;;;;4968129;28;20204;-88
2022/06/21 19:15:38;;;;;;;1.90;1.30;;;;;;;;;;5004419;28;20186;-88
2022/06/21 19:19:00;;;;;;;2.17;1.40;;;;;;;;;;4995005;28;20226;-87
2022/06/21 19:22:29;;;;;;;1.90;1.40;;;;;;;;;;4995865;28;20183;-88
2022/06/21 19:25:53;;;;;;;4.90;1.27;;;;;;;;;;4973266;28;20185;-88
2022/06/21 19:29:34;;;;;;;2.33;1.40;;;;;;;;;;5003148;28;20229;-87
2022/06/21 19:32:56;;;;;;;1.77;1.33;;;;;;;;;;4991957;28;20560;-88
2022/06/21 19:36:39;;;;;;;3.93;1.50;;;;;;;;;;4992339;28;20178;-88
2022/06/21 19:39:55;;;;;;;3.53;1.60;;;;;;;;;;5011975;28;20680;-88
2022/06/21 19:43:42;;;;;;;1.80;1.23;;;;;;;;;;5008981;28;20198;-87
2022/06/21 19:46:56;;;;;;;2.50;1.30;;;;;;;;;;4994224;28;20236;-88
2022/06/21 19:50:25;;;;;;;1.13;0.97;;;;;;;;;;4975131;28;20190;-87
2022/06/21 19:53:38;;;;;;;2.83;1.20;;;;;;;;;;4991088;28;20181;-88
2022/06/21 19:56:47;;;;;;;2.60;1.33;;;;;;;;;;5002064;28;20514;-87
2022/06/21 20:00:12;;;;;;;2.30;1.20;;;;;;;;;;5013266;28;20205;-88
2022/06/21 20:03:46;;;;;;;3.07;1.47;;;;;;;;;;4990258;28;20193;-88